Observations for Trim Patrick St
| Time | AQI | Temp °C | Hum % | Pres Pa | CO μg/m³ | H₂S μg/m³ | NO μg/m³ | NO₂ μg/m³ | O₃ μg/m³ | SO₂ μg/m³ | PM1 μg/m³ | PM2.5 μg/m³ | PM10 μg/m³ |
|---|---|---|---|---|---|---|---|---|---|---|---|---|---|
| Sunday 2 August 2026 | |||||||||||||
| 17:42 | 3 | 23.7 | 39 | 68,924 | 0 | 5.71 | 1.15 | 13.6 | 72.79 | 5.97 | 2.86 | 8.7 | 9.57 |
| 17:41 | 3 | 23.8 | 39 | 68,924 | 0 | 8.47 | 1.09 | 17.07 | 102.29 | 8.08 | 2.86 | 10.28 | 11.31 |
| 17:40 | 3 | 23.9 | 38 | 68,896 | 0 | 4.72 | 1.05 | 11.93 | 69.85 | 6.1 | 3.71 | 9.5 | 10.45 |
| 17:39 | 3 | 23.9 | 39 | 68,916 | 0 | 7.69 | 1.03 | 14.88 | 81.3 | 7.22 | 4.57 | 11.06 | 12.17 |
| 17:38 | 3 | 24 | 39 | 68,910 | 0 | 6.76 | 1.03 | 14.76 | 75.15 | 7.05 | 3.71 | 8.71 | 9.58 |
| 17:36 | 3 | 24.2 | 38 | 68,880 | 0 | 6.94 | 1.01 | 12.05 | 77.08 | 7.15 | 2.86 | 10.32 | 11.35 |
| 17:35 | 3 | 24.2 | 38 | 68,894 | 0 | 7.49 | 1.01 | 16.79 | 101.2 | 7.09 | 2.86 | 8.74 | 9.61 |
| 17:33 | 3 | 24.3 | 38 | 68,926 | 0 | 8.2 | 1.01 | 15.49 | 107.71 | 7.58 | 2.86 | 8.76 | 9.64 |
| 17:32 | 3 | 24.4 | 38 | 68,924 | 0 | 4.46 | 1.02 | 11.98 | 89.32 | 7.56 | 2.86 | 8.73 | 9.61 |
| 17:31 | 3 | 24.5 | 38 | 68,947 | 0 | 3.23 | 1.16 | 12.03 | 75.76 | 7.8 | 2.86 | 8.74 | 9.61 |
| 17:30 | 3 | 24.6 | 38 | 68,955 | 0 | 4.92 | 1.14 | 11.93 | 96.61 | 8.13 | 3.71 | 9.56 | 10.52 |
| 17:26 | 3 | 25 | 37 | 68,985 | 0 | 0 | 1.12 | 12.56 | 78.34 | 7.22 | 3.71 | 9.62 | 10.58 |
| 17:25 | 3 | 25.1 | 38 | 68,995 | 0 | 0 | 1.11 | 12.5 | 72.54 | 7.04 | 2.86 | 9.57 | 10.53 |
| 17:24 | 3 | 25.1 | 37 | 69,008 | 0 | 0 | 1.06 | 12.59 | 72.57 | 6.2 | 3.71 | 9.63 | 10.59 |
| 17:23 | 3 | 25.2 | 37 | 68,999 | 0 | 0 | 1.34 | 11.86 | 73.16 | 7.12 | 3.71 | 9.63 | 10.59 |
| 17:22 | 3 | 25.3 | 37 | 69,010 | 0 | 0 | 1.45 | 13.13 | 74.82 | 7.63 | 2.86 | 8.81 | 9.7 |
| 17:21 | 3 | 25.3 | 37 | 68,995 | 0 | 1.85 | 1.31 | 14.83 | 90.19 | 8.21 | 3.71 | 9.61 | 10.57 |
| 17:20 | 3 | 25.4 | 37 | 68,979 | 0 | 0 | 1.09 | 12.78 | 77.77 | 8.85 | 2.86 | 8.82 | 9.7 |
| 17:19 | 3 | 25.4 | 38 | 68,985 | 0 | 0 | 1.1 | 11.79 | 77 | 8.09 | 3.71 | 8.77 | 9.65 |
| 17:18 | 3 | 25.5 | 37 | 68,993 | 0 | 0 | 0.98 | 14.33 | 78.82 | 7.62 | 2.86 | 9.63 | 10.59 |